sensor_id;sensor_type;location;lat;lon;timestamp;P1;durP1;ratioP1;P2;durP2;ratioP2
33072;SDS011;19432;48.946;8.846;2022-07-31T00:00:07;2.00;;;1.80;;
33072;SDS011;19432;48.946;8.846;2022-07-31T00:02:34;2.50;;;2.20;;
33072;SDS011;19432;48.946;8.846;2022-07-31T00:05:00;1.77;;;1.63;;
33072;SDS011;19432;48.946;8.846;2022-07-31T00:07:27;1.90;;;1.80;;
33072;SDS011;19432;48.946;8.846;2022-07-31T00:09:52;10.57;;;7.28;;
33072;SDS011;19432;48.946;8.846;2022-07-31T00:12:19;12.82;;;8.95;;
33072;SDS011;19432;48.946;8.846;2022-07-31T00:14:45;10.30;;;7.88;;
33072;SDS011;19432;48.946;8.846;2022-07-31T00:17:11;8.05;;;5.95;;
33072;SDS011;19432;48.946;8.846;2022-07-31T00:19:37;4.70;;;4.25;;
33072;SDS011;19432;48.946;8.846;2022-07-31T00:22:02;6.82;;;5.00;;
33072;SDS011;19432;48.946;8.846;2022-07-31T00:24:28;2.95;;;2.63;;
33072;SDS011;19432;48.946;8.846;2022-07-31T00:26:54;2.75;;;2.47;;
33072;SDS011;19432;48.946;8.846;2022-07-31T00:29:20;4.22;;;2.42;;
33072;SDS011;19432;48.946;8.846;2022-07-31T00:31:46;2.63;;;2.22;;
33072;SDS011;19432;48.946;8.846;2022-07-31T00:34:11;3.30;;;2.95;;
33072;SDS011;19432;48.946;8.846;2022-07-31T00:36:37;3.33;;;2.97;;
33072;SDS011;19432;48.946;8.846;2022-07-31T00:39:02;2.78;;;2.10;;
33072;SDS011;19432;48.946;8.846;2022-07-31T00:42:02;2.40;;;2.20;;
33072;SDS011;19432;48.946;8.846;2022-07-31T00:44:21;1.75;;;1.63;;
33072;SDS011;19432;48.946;8.846;2022-07-31T00:46:46;1.98;;;1.77;;
33072;SDS011;19432;48.946;8.846;2022-07-31T00:49:12;2.75;;;1.90;;
33072;SDS011;19432;48.946;8.846;2022-07-31T00:51:38;3.92;;;2.72;;
33072;SDS011;19432;48.946;8.846;2022-07-31T00:54:05;2.35;;;2.13;;
33072;SDS011;19432;48.946;8.846;2022-07-31T00:56:32;3.33;;;2.30;;
33072;SDS011;19432;48.946;8.846;2022-07-31T00:58:58;2.58;;;2.20;;
33072;SDS011;19432;48.946;8.846;2022-07-31T01:01:24;2.97;;;2.40;;
33072;SDS011;19432;48.946;8.846;2022-07-31T01:03:50;2.00;;;1.83;;
33072;SDS011;19432;48.946;8.846;2022-07-31T01:06:17;3.28;;;2.50;;
33072;SDS011;19432;48.946;8.846;2022-07-31T01:08:43;2.38;;;2.20;;
33072;SDS011;19432;48.946;8.846;2022-07-31T01:11:16;2.88;;;2.03;;
33072;SDS011;19432;48.946;8.846;2022-07-31T01:13:53;2.20;;;2.00;;
33072;SDS011;19432;48.946;8.846;2022-07-31T01:16:22;2.72;;;2.05;;
33072;SDS011;19432;48.946;8.846;2022-07-31T01:18:51;2.28;;;2.08;;
33072;SDS011;19432;48.946;8.846;2022-07-31T01:21:24;1.88;;;1.77;;
33072;SDS011;19432;48.946;8.846;2022-07-31T01:24:07;2.72;;;1.65;;
33072;SDS011;19432;48.946;8.846;2022-07-31T01:26:57;1.95;;;1.80;;
33072;SDS011;19432;48.946;8.846;2022-07-31T01:29:28;2.53;;;1.73;;
33072;SDS011;19432;48.946;8.846;2022-07-31T01:32:09;2.00;;;1.80;;
33072;SDS011;19432;48.946;8.846;2022-07-31T01:34:47;2.00;;;1.80;;
33072;SDS011;19432;48.946;8.846;2022-07-31T01:37:17;2.17;;;1.60;;
33072;SDS011;19432;48.946;8.846;2022-07-31T01:39:58;2.47;;;2.28;;
33072;SDS011;19432;48.946;8.846;2022-07-31T01:42:30;2.20;;;2.00;;
33072;SDS011;19432;48.946;8.846;2022-07-31T01:44:59;2.00;;;1.50;;
33072;SDS011;19432;48.946;8.846;2022-07-31T01:47:26;2.25;;;2.00;;
33072;SDS011;19432;48.946;8.846;2022-07-31T01:49:53;1.77;;;1.63;;
33072;SDS011;19432;48.946;8.846;2022-07-31T01:52:20;2.30;;;2.10;;
33072;SDS011;19432;48.946;8.846;2022-07-31T01:54:49;1.88;;;1.77;;
33072;SDS011;19432;48.946;8.846;2022-07-31T01:57:16;2.13;;;1.92;;
33072;SDS011;19432;48.946;8.846;2022-07-31T01:59:43;2.78;;;2.00;;
33072;SDS011;19432;48.946;8.846;2022-07-31T02:02:11;3.72;;;1.65;;
33072;SDS011;19432;48.946;8.846;2022-07-31T02:04:38;2.25;;;2.05;;
33072;SDS011;19432;48.946;8.846;2022-07-31T02:07:04;1.60;;;1.50;;
33072;SDS011;19432;48.946;8.846;2022-07-31T02:09:32;2.38;;;1.77;;
33072;SDS011;19432;48.946;8.846;2022-07-31T02:11:59;3.75;;;2.10;;
33072;SDS011;19432;48.946;8.846;2022-07-31T02:14:26;2.05;;;1.95;;
33072;SDS011;19432;48.946;8.846;2022-07-31T02:16:53;1.92;;;1.70;;
33072;SDS011;19432;48.946;8.846;2022-07-31T02:19:20;2.13;;;1.92;;
33072;SDS011;19432;48.946;8.846;2022-07-31T02:21:48;2.10;;;1.90;;
33072;SDS011;19432;48.946;8.846;2022-07-31T02:24:14;2.20;;;1.90;;
33072;SDS011;19432;48.946;8.846;2022-07-31T02:26:40;3.65;;;1.80;;
33072;SDS011;19432;48.946;8.846;2022-07-31T02:29:06;2.08;;;1.90;;
33072;SDS011;19432;48.946;8.846;2022-07-31T02:31:34;1.75;;;1.65;;
33072;SDS011;19432;48.946;8.846;2022-07-31T02:34:01;2.58;;;1.90;;
33072;SDS011;19432;48.946;8.846;2022-07-31T02:36:27;2.08;;;1.83;;
33072;SDS011;19432;48.946;8.846;2022-07-31T02:38:57;1.80;;;1.70;;
33072;SDS011;19432;48.946;8.846;2022-07-31T02:41:22;2.22;;;2.03;;
33072;SDS011;19432;48.946;8.846;2022-07-31T02:43:49;1.95;;;1.85;;
33072;SDS011;19432;48.946;8.846;2022-07-31T02:46:15;2.17;;;1.90;;
33072;SDS011;19432;48.946;8.846;2022-07-31T02:48:42;2.03;;;1.85;;
33072;SDS011;19432;48.946;8.846;2022-07-31T02:51:08;2.75;;;1.88;;
33072;SDS011;19432;48.946;8.846;2022-07-31T02:53:35;1.60;;;1.50;;
33072;SDS011;19432;48.946;8.846;2022-07-31T02:56:01;2.50;;;2.20;;
33072;SDS011;19432;48.946;8.846;2022-07-31T02:58:29;2.03;;;1.88;;
33072;SDS011;19432;48.946;8.846;2022-07-31T03:01:02;1.77;;;1.67;;
33072;SDS011;19432;48.946;8.846;2022-07-31T03:03:29;1.85;;;1.75;;
33072;SDS011;19432;48.946;8.846;2022-07-31T03:05:55;3.53;;;1.63;;
33072;SDS011;19432;48.946;8.846;2022-07-31T03:08:21;1.83;;;1.73;;
33072;SDS011;19432;48.946;8.846;2022-07-31T03:10:46;2.03;;;1.80;;
33072;SDS011;19432;48.946;8.846;2022-07-31T03:13:12;2.22;;;2.03;;
33072;SDS011;19432;48.946;8.846;2022-07-31T03:15:39;2.10;;;1.90;;
33072;SDS011;19432;48.946;8.846;2022-07-31T03:18:07;2.03;;;1.83;;
33072;SDS011;19432;48.946;8.846;2022-07-31T03:20:35;2.40;;;1.75;;
33072;SDS011;19432;48.946;8.846;2022-07-31T03:23:03;2.03;;;1.75;;
33072;SDS011;19432;48.946;8.846;2022-07-31T03:25:30;2.20;;;2.00;;
33072;SDS011;19432;48.946;8.846;2022-07-31T03:27:57;1.98;;;1.70;;
33072;SDS011;19432;48.946;8.846;2022-07-31T03:30:24;1.98;;;1.88;;
33072;SDS011;19432;48.946;8.846;2022-07-31T03:32:50;1.83;;;1.73;;
33072;SDS011;19432;48.946;8.846;2022-07-31T03:35:21;2.38;;;2.00;;
33072;SDS011;19432;48.946;8.846;2022-07-31T03:37:47;1.95;;;1.85;;
33072;SDS011;19432;48.946;8.846;2022-07-31T03:40:13;2.03;;;1.83;;
33072;SDS011;19432;48.946;8.846;2022-07-31T03:42:39;2.30;;;2.10;;
33072;SDS011;19432;48.946;8.846;2022-07-31T03:45:06;1.85;;;1.75;;
33072;SDS011;19432;48.946;8.846;2022-07-31T03:47:33;1.80;;;1.70;;
33072;SDS011;19432;48.946;8.846;2022-07-31T03:49:59;2.40;;;2.03;;
33072;SDS011;19432;48.946;8.846;2022-07-31T03:52:26;1.98;;;1.77;;
33072;SDS011;19432;48.946;8.846;2022-07-31T03:54:52;2.17;;;2.00;;
33072;SDS011;19432;48.946;8.846;2022-07-31T03:57:18;2.08;;;1.90;;
33072;SDS011;19432;48.946;8.846;2022-07-31T03:59:45;1.80;;;1.70;;
33072;SDS011;19432;48.946;8.846;2022-07-31T04:02:11;1.88;;;1.77;;
33072;SDS011;19432;48.946;8.846;2022-07-31T04:04:37;2.05;;;1.85;;
33072;SDS011;19432;48.946;8.846;2022-07-31T04:07:05;3.05;;;1.98;;
33072;SDS011;19432;48.946;8.846;2022-07-31T04:09:31;2.03;;;1.90;;
33072;SDS011;19432;48.946;8.846;2022-07-31T04:11:57;1.90;;;1.80;;
33072;SDS011;19432;48.946;8.846;2022-07-31T04:14:22;1.90;;;1.77;;
33072;SDS011;19432;48.946;8.846;2022-07-31T04:16:48;1.80;;;1.70;;
33072;SDS011;19432;48.946;8.846;2022-07-31T04:19:14;2.28;;;2.00;;
33072;SDS011;19432;48.946;8.846;2022-07-31T04:21:39;2.28;;;2.08;;
33072;SDS011;19432;48.946;8.846;2022-07-31T04:24:05;2.10;;;1.90;;
33072;SDS011;19432;48.946;8.846;2022-07-31T04:26:31;2.13;;;1.92;;
33072;SDS011;19432;48.946;8.846;2022-07-31T04:28:57;2.03;;;1.88;;
33072;SDS011;19432;48.946;8.846;2022-07-31T04:31:23;1.73;;;1.63;;
33072;SDS011;19432;48.946;8.846;2022-07-31T04:33:48;1.90;;;1.80;;
33072;SDS011;19432;48.946;8.846;2022-07-31T04:36:14;2.42;;;2.22;;
33072;SDS011;19432;48.946;8.846;2022-07-31T04:38:41;2.05;;;1.90;;
33072;SDS011;19432;48.946;8.846;2022-07-31T04:41:07;2.03;;;1.85;;
33072;SDS011;19432;48.946;8.846;2022-07-31T04:43:33;3.25;;;2.28;;
33072;SDS011;19432;48.946;8.846;2022-07-31T04:45:58;2.45;;;1.98;;
33072;SDS011;19432;48.946;8.846;2022-07-31T04:48:24;2.15;;;2.05;;
33072;SDS011;19432;48.946;8.846;2022-07-31T04:50:50;2.35;;;1.90;;
33072;SDS011;19432;48.946;8.846;2022-07-31T04:53:15;2.33;;;2.13;;
33072;SDS011;19432;48.946;8.846;2022-07-31T04:55:41;3.88;;;1.80;;
33072;SDS011;19432;48.946;8.846;2022-07-31T04:58:07;2.28;;;2.00;;
33072;SDS011;19432;48.946;8.846;2022-07-31T05:00:32;2.25;;;2.05;;
33072;SDS011;19432;48.946;8.846;2022-07-31T05:02:58;2.42;;;1.98;;
33072;SDS011;19432;48.946;8.846;2022-07-31T05:05:23;2.47;;;2.03;;
33072;SDS011;19432;48.946;8.846;2022-07-31T05:07:49;2.38;;;2.17;;
33072;SDS011;19432;48.946;8.846;2022-07-31T05:10:15;2.50;;;2.30;;
33072;SDS011;19432;48.946;8.846;2022-07-31T05:12:59;3.40;;;2.25;;
33072;SDS011;19432;48.946;8.846;2022-07-31T05:15:24;2.25;;;2.05;;
33072;SDS011;19432;48.946;8.846;2022-07-31T05:17:50;1.80;;;1.70;;
33072;SDS011;19432;48.946;8.846;2022-07-31T05:20:16;2.50;;;2.30;;
33072;SDS011;19432;48.946;8.846;2022-07-31T05:22:42;2.40;;;2.20;;
33072;SDS011;19432;48.946;8.846;2022-07-31T05:25:07;2.55;;;2.35;;
33072;SDS011;19432;48.946;8.846;2022-07-31T05:27:33;2.42;;;2.25;;
33072;SDS011;19432;48.946;8.846;2022-07-31T05:29:58;2.55;;;2.35;;
33072;SDS011;19432;48.946;8.846;2022-07-31T05:32:24;2.45;;;2.25;;
33072;SDS011;19432;48.946;8.846;2022-07-31T05:34:50;2.63;;;2.42;;
33072;SDS011;19432;48.946;8.846;2022-07-31T05:37:15;2.83;;;2.35;;
33072;SDS011;19432;48.946;8.846;2022-07-31T05:39:41;2.33;;;2.13;;
33072;SDS011;19432;48.946;8.846;2022-07-31T05:42:06;2.28;;;2.08;;
33072;SDS011;19432;48.946;8.846;2022-07-31T05:44:32;2.50;;;2.30;;
33072;SDS011;19432;48.946;8.846;2022-07-31T05:46:57;2.40;;;2.20;;
33072;SDS011;19432;48.946;8.846;2022-07-31T05:49:23;2.25;;;2.05;;
33072;SDS011;19432;48.946;8.846;2022-07-31T05:51:50;2.40;;;2.20;;
33072;SDS011;19432;48.946;8.846;2022-07-31T05:54:18;2.60;;;2.40;;
33072;SDS011;19432;48.946;8.846;2022-07-31T05:56:44;2.78;;;2.28;;
33072;SDS011;19432;48.946;8.846;2022-07-31T05:59:10;2.28;;;1.98;;
33072;SDS011;19432;48.946;8.846;2022-07-31T06:01:35;2.75;;;2.30;;
33072;SDS011;19432;48.946;8.846;2022-07-31T06:04:01;2.53;;;2.10;;
33072;SDS011;19432;48.946;8.846;2022-07-31T06:06:27;2.83;;;2.28;;
33072;SDS011;19432;48.946;8.846;2022-07-31T06:08:52;2.30;;;2.10;;
33072;SDS011;19432;48.946;8.846;2022-07-31T06:11:18;2.40;;;2.13;;
33072;SDS011;19432;48.946;8.846;2022-07-31T06:13:44;2.50;;;2.30;;
33072;SDS011;19432;48.946;8.846;2022-07-31T06:16:11;2.83;;;2.63;;
33072;SDS011;19432;48.946;8.846;2022-07-31T06:18:37;2.35;;;2.20;;
33072;SDS011;19432;48.946;8.846;2022-07-31T06:21:03;2.30;;;2.20;;
33072;SDS011;19432;48.946;8.846;2022-07-31T06:23:29;2.72;;;2.13;;
33072;SDS011;19432;48.946;8.846;2022-07-31T06:25:55;2.40;;;2.20;;
33072;SDS011;19432;48.946;8.846;2022-07-31T06:28:21;2.60;;;2.40;;
33072;SDS011;19432;48.946;8.846;2022-07-31T06:30:46;3.17;;;2.20;;
33072;SDS011;19432;48.946;8.846;2022-07-31T06:33:12;3.75;;;2.45;;
33072;SDS011;19432;48.946;8.846;2022-07-31T06:35:38;2.47;;;2.28;;
33072;SDS011;19432;48.946;8.846;2022-07-31T06:38:03;2.70;;;2.50;;
33072;SDS011;19432;48.946;8.846;2022-07-31T06:40:29;3.05;;;2.75;;
33072;SDS011;19432;48.946;8.846;2022-07-31T06:42:55;3.35;;;3.05;;
33072;SDS011;19432;48.946;8.846;2022-07-31T06:45:20;2.78;;;2.58;;
33072;SDS011;19432;48.946;8.846;2022-07-31T06:47:46;2.63;;;2.40;;
33072;SDS011;19432;48.946;8.846;2022-07-31T06:50:11;3.13;;;2.83;;
33072;SDS011;19432;48.946;8.846;2022-07-31T06:52:37;3.00;;;2.60;;
33072;SDS011;19432;48.946;8.846;2022-07-31T06:55:03;2.60;;;2.40;;
33072;SDS011;19432;48.946;8.846;2022-07-31T06:57:30;2.80;;;2.60;;
33072;SDS011;19432;48.946;8.846;2022-07-31T06:59:55;3.05;;;2.67;;
33072;SDS011;19432;48.946;8.846;2022-07-31T07:02:21;3.50;;;2.50;;
33072;SDS011;19432;48.946;8.846;2022-07-31T07:04:47;3.13;;;2.50;;
33072;SDS011;19432;48.946;8.846;2022-07-31T07:07:12;2.83;;;2.60;;
33072;SDS011;19432;48.946;8.846;2022-07-31T07:09:38;2.80;;;2.60;;
33072;SDS011;19432;48.946;8.846;2022-07-31T07:12:04;2.53;;;2.33;;
33072;SDS011;19432;48.946;8.846;2022-07-31T07:14:30;2.17;;;2.00;;
33072;SDS011;19432;48.946;8.846;2022-07-31T07:16:55;2.40;;;2.20;;
33072;SDS011;19432;48.946;8.846;2022-07-31T07:19:21;2.20;;;1.98;;
33072;SDS011;19432;48.946;8.846;2022-07-31T07:21:46;1.92;;;1.73;;
33072;SDS011;19432;48.946;8.846;2022-07-31T07:24:12;1.88;;;1.77;;
33072;SDS011;19432;48.946;8.846;2022-07-31T07:26:37;2.03;;;1.90;;
33072;SDS011;19432;48.946;8.846;2022-07-31T07:29:03;2.45;;;2.25;;
33072;SDS011;19432;48.946;8.846;2022-07-31T07:31:29;2.38;;;2.17;;
33072;SDS011;19432;48.946;8.846;2022-07-31T07:33:54;2.20;;;2.08;;
33072;SDS011;19432;48.946;8.846;2022-07-31T07:36:22;2.35;;;2.15;;
33072;SDS011;19432;48.946;8.846;2022-07-31T07:38:48;2.10;;;1.90;;
33072;SDS011;19432;48.946;8.846;2022-07-31T07:41:13;2.45;;;1.67;;
33072;SDS011;19432;48.946;8.846;2022-07-31T07:43:39;2.03;;;1.83;;
33072;SDS011;19432;48.946;8.846;2022-07-31T07:46:04;2.28;;;1.90;;
33072;SDS011;19432;48.946;8.846;2022-07-31T07:48:30;2.05;;;1.83;;
33072;SDS011;19432;48.946;8.846;2022-07-31T07:50:56;1.65;;;1.55;;
33072;SDS011;19432;48.946;8.846;2022-07-31T07:53:21;1.90;;;1.80;;
33072;SDS011;19432;48.946;8.846;2022-07-31T07:55:47;2.55;;;1.90;;
33072;SDS011;19432;48.946;8.846;2022-07-31T07:58:12;1.92;;;1.83;;
33072;SDS011;19432;48.946;8.846;2022-07-31T08:00:38;2.40;;;1.85;;
33072;SDS011;19432;48.946;8.846;2022-07-31T08:03:05;2.92;;;1.63;;
33072;SDS011;19432;48.946;8.846;2022-07-31T08:05:30;1.70;;;1.58;;
33072;SDS011;19432;48.946;8.846;2022-07-31T08:07:56;1.70;;;1.60;;
33072;SDS011;19432;48.946;8.846;2022-07-31T08:10:22;1.63;;;1.52;;
33072;SDS011;19432;48.946;8.846;2022-07-31T08:12:47;1.75;;;1.65;;
33072;SDS011;19432;48.946;8.846;2022-07-31T08:15:14;2.28;;;1.60;;
33072;SDS011;19432;48.946;8.846;2022-07-31T08:17:39;1.90;;;1.70;;
33072;SDS011;19432;48.946;8.846;2022-07-31T08:20:05;1.90;;;1.67;;
33072;SDS011;19432;48.946;8.846;2022-07-31T08:22:31;2.55;;;1.67;;
33072;SDS011;19432;48.946;8.846;2022-07-31T08:24:57;1.90;;;1.80;;
33072;SDS011;19432;48.946;8.846;2022-07-31T08:27:22;1.60;;;1.50;;
33072;SDS011;19432;48.946;8.846;2022-07-31T08:29:48;2.13;;;1.80;;
33072;SDS011;19432;48.946;8.846;2022-07-31T08:32:18;1.90;;;1.80;;
33072;SDS011;19432;48.946;8.846;2022-07-31T08:34:44;1.60;;;1.50;;
33072;SDS011;19432;48.946;8.846;2022-07-31T08:37:11;1.95;;;1.70;;
33072;SDS011;19432;48.946;8.846;2022-07-31T08:39:37;1.50;;;1.40;;
33072;SDS011;19432;48.946;8.846;2022-07-31T08:42:04;2.30;;;1.50;;
33072;SDS011;19432;48.946;8.846;2022-07-31T08:44:37;1.25;;;1.15;;
33072;SDS011;19432;48.946;8.846;2022-07-31T08:47:07;1.45;;;1.35;;
33072;SDS011;19432;48.946;8.846;2022-07-31T08:49:39;1.77;;;1.30;;
33072;SDS011;19432;48.946;8.846;2022-07-31T08:52:10;1.50;;;1.40;;
33072;SDS011;19432;48.946;8.846;2022-07-31T08:54:43;1.50;;;1.40;;
33072;SDS011;19432;48.946;8.846;2022-07-31T08:57:11;1.55;;;1.40;;
33072;SDS011;19432;48.946;8.846;2022-07-31T08:59:37;1.65;;;1.55;;
33072;SDS011;19432;48.946;8.846;2022-07-31T09:02:08;1.23;;;1.13;;
33072;SDS011;19432;48.946;8.846;2022-07-31T09:04:34;1.48;;;1.27;;
33072;SDS011;19432;48.946;8.846;2022-07-31T09:07:00;1.40;;;1.30;;
33072;SDS011;19432;48.946;8.846;2022-07-31T09:09:26;1.30;;;1.20;;
33072;SDS011;19432;48.946;8.846;2022-07-31T09:11:52;1.30;;;1.20;;
33072;SDS011;19432;48.946;8.846;2022-07-31T09:14:25;1.63;;;1.52;;
33072;SDS011;19432;48.946;8.846;2022-07-31T09:16:53;1.08;;;1.08;;
33072;SDS011;19432;48.946;8.846;2022-07-31T09:19:20;1.65;;;1.40;;
33072;SDS011;19432;48.946;8.846;2022-07-31T09:21:47;1.48;;;1.30;;
33072;SDS011;19432;48.946;8.846;2022-07-31T09:24:14;1.48;;;1.38;;
33072;SDS011;19432;48.946;8.846;2022-07-31T09:27:00;1.33;;;1.23;;
33072;SDS011;19432;48.946;8.846;2022-07-31T09:29:36;2.65;;;1.80;;
33072;SDS011;19432;48.946;8.846;2022-07-31T09:32:06;1.65;;;1.52;;
33072;SDS011;19432;48.946;8.846;2022-07-31T09:34:32;1.58;;;1.33;;
33072;SDS011;19432;48.946;8.846;2022-07-31T09:37:06;1.50;;;1.40;;
33072;SDS011;19432;48.946;8.846;2022-07-31T09:39:52;1.20;;;1.10;;
33072;SDS011;19432;48.946;8.846;2022-07-31T09:42:20;1.42;;;1.20;;
33072;SDS011;19432;48.946;8.846;2022-07-31T09:44:48;1.10;;;1.00;;
33072;SDS011;19432;48.946;8.846;2022-07-31T09:47:18;1.75;;;1.20;;
33072;SDS011;19432;48.946;8.846;2022-07-31T09:49:54;1.02;;;0.93;;
33072;SDS011;19432;48.946;8.846;2022-07-31T09:52:22;1.95;;;1.20;;
33072;SDS011;19432;48.946;8.846;2022-07-31T09:54:58;1.42;;;1.20;;
33072;SDS011;19432;48.946;8.846;2022-07-31T09:57:35;1.80;;;1.70;;
33072;SDS011;19432;48.946;8.846;2022-07-31T10:00:08;1.50;;;1.40;;
33072;SDS011;19432;48.946;8.846;2022-07-31T10:02:35;1.42;;;1.33;;
33072;SDS011;19432;48.946;8.846;2022-07-31T10:05:04;1.20;;;1.00;;
33072;SDS011;19432;48.946;8.846;2022-07-31T10:07:30;2.05;;;1.85;;
33072;SDS011;19432;48.946;8.846;2022-07-31T10:10:00;1.30;;;1.20;;
33072;SDS011;19432;48.946;8.846;2022-07-31T10:12:27;1.30;;;1.20;;
33072;SDS011;19432;48.946;8.846;2022-07-31T10:14:55;1.60;;;1.50;;
33072;SDS011;19432;48.946;8.846;2022-07-31T10:17:28;1.50;;;1.40;;
33072;SDS011;19432;48.946;8.846;2022-07-31T10:19:57;2.90;;;1.23;;
33072;SDS011;19432;48.946;8.846;2022-07-31T10:22:30;1.50;;;1.27;;
33072;SDS011;19432;48.946;8.846;2022-07-31T10:25:09;1.75;;;1.65;;
33072;SDS011;19432;48.946;8.846;2022-07-31T10:27:41;1.67;;;1.50;;
33072;SDS011;19432;48.946;8.846;2022-07-31T10:30:08;1.33;;;1.23;;
33072;SDS011;19432;48.946;8.846;2022-07-31T10:32:34;2.75;;;2.45;;
33072;SDS011;19432;48.946;8.846;2022-07-31T10:35:02;1.60;;;1.30;;
33072;SDS011;19432;48.946;8.846;2022-07-31T10:37:31;1.60;;;1.50;;
33072;SDS011;19432;48.946;8.846;2022-07-31T10:41:04;1.58;;;1.48;;
33072;SDS011;19432;48.946;8.846;2022-07-31T10:45:43;1.17;;;1.10;;
33072;SDS011;19432;48.946;8.846;2022-07-31T10:48:20;1.00;;;1.00;;
33072;SDS011;19432;48.946;8.846;2022-07-31T10:50:46;1.90;;;1.80;;
33072;SDS011;19432;48.946;8.846;2022-07-31T10:53:24;2.83;;;2.63;;
33072;SDS011;19432;48.946;8.846;2022-07-31T10:55:58;1.85;;;1.73;;
33072;SDS011;19432;48.946;8.846;2022-07-31T10:58:45;1.17;;;1.08;;
33072;SDS011;19432;48.946;8.846;2022-07-31T11:01:15;1.38;;;1.20;;
33072;SDS011;19432;48.946;8.846;2022-07-31T11:03:44;1.40;;;1.30;;
33072;SDS011;19432;48.946;8.846;2022-07-31T11:06:13;1.15;;;1.10;;
33072;SDS011;19432;48.946;8.846;2022-07-31T11:08:47;2.10;;;1.92;;
33072;SDS011;19432;48.946;8.846;2022-07-31T11:11:15;1.25;;;1.05;;
33072;SDS011;19432;48.946;8.846;2022-07-31T11:13:51;1.20;;;1.10;;
33072;SDS011;19432;48.946;8.846;2022-07-31T11:16:20;1.20;;;1.10;;
33072;SDS011;19432;48.946;8.846;2022-07-31T11:21:41;1.55;;;1.45;;
33072;SDS011;19432;48.946;8.846;2022-07-31T11:24:18;1.60;;;1.27;;
33072;SDS011;19432;48.946;8.846;2022-07-31T11:29:37;1.20;;;1.10;;
33072;SDS011;19432;48.946;8.846;2022-07-31T11:34:29;1.67;;;1.05;;
33072;SDS011;19432;48.946;8.846;2022-07-31T11:37:17;1.33;;;1.02;;
33072;SDS011;19432;48.946;8.846;2022-07-31T11:39:46;1.88;;;1.30;;
33072;SDS011;19432;48.946;8.846;2022-07-31T11:42:12;1.38;;;1.27;;
33072;SDS011;19432;48.946;8.846;2022-07-31T11:44:38;2.15;;;1.33;;
33072;SDS011;19432;48.946;8.846;2022-07-31T11:47:04;1.45;;;1.35;;
33072;SDS011;19432;48.946;8.846;2022-07-31T11:49:29;1.60;;;1.10;;
33072;SDS011;19432;48.946;8.846;2022-07-31T11:51:59;1.67;;;1.10;;
33072;SDS011;19432;48.946;8.846;2022-07-31T11:54:26;1.40;;;1.30;;
33072;SDS011;19432;48.946;8.846;2022-07-31T11:56:52;1.95;;;1.23;;
33072;SDS011;19432;48.946;8.846;2022-07-31T11:59:28;1.38;;;1.27;;
33072;SDS011;19432;48.946;8.846;2022-07-31T12:02:02;1.40;;;1.30;;
33072;SDS011;19432;48.946;8.846;2022-07-31T12:04:31;1.40;;;1.30;;
33072;SDS011;19432;48.946;8.846;2022-07-31T12:06:58;1.38;;;1.27;;
33072;SDS011;19432;48.946;8.846;2022-07-31T12:09:24;1.55;;;1.40;;
33072;SDS011;19432;48.946;8.846;2022-07-31T12:11:50;1.67;;;1.45;;
33072;SDS011;19432;48.946;8.846;2022-07-31T12:16:58;1.77;;;1.60;;
33072;SDS011;19432;48.946;8.846;2022-07-31T12:19:25;3.60;;;3.25;;
33072;SDS011;19432;48.946;8.846;2022-07-31T12:21:55;3.70;;;3.33;;
33072;SDS011;19432;48.946;8.846;2022-07-31T12:24:21;2.80;;;2.22;;
33072;SDS011;19432;48.946;8.846;2022-07-31T12:26:49;2.58;;;2.38;;
33072;SDS011;19432;48.946;8.846;2022-07-31T12:29:16;1.55;;;1.45;;
33072;SDS011;19432;48.946;8.846;2022-07-31T12:31:49;1.60;;;1.50;;
33072;SDS011;19432;48.946;8.846;2022-07-31T12:37:06;2.35;;;1.00;;
33072;SDS011;19432;48.946;8.846;2022-07-31T12:39:36;1.40;;;1.15;;
33072;SDS011;19432;48.946;8.846;2022-07-31T12:42:19;1.80;;;1.10;;
33072;SDS011;19432;48.946;8.846;2022-07-31T12:44:54;1.52;;;1.20;;
33072;SDS011;19432;48.946;8.846;2022-07-31T12:47:21;1.30;;;1.20;;
33072;SDS011;19432;48.946;8.846;2022-07-31T12:49:47;1.38;;;1.05;;
33072;SDS011;19432;48.946;8.846;2022-07-31T12:52:13;1.20;;;1.10;;
33072;SDS011;19432;48.946;8.846;2022-07-31T12:54:40;1.30;;;1.20;;
33072;SDS011;19432;48.946;8.846;2022-07-31T12:57:05;0.90;;;0.85;;
33072;SDS011;19432;48.946;8.846;2022-07-31T12:59:31;1.10;;;1.00;;
33072;SDS011;19432;48.946;8.846;2022-07-31T13:01:56;0.90;;;0.90;;
33072;SDS011;19432;48.946;8.846;2022-07-31T13:04:22;2.10;;;1.10;;
33072;SDS011;19432;48.946;8.846;2022-07-31T13:06:48;1.45;;;1.35;;
33072;SDS011;19432;48.946;8.846;2022-07-31T13:09:15;2.20;;;1.65;;
33072;SDS011;19432;48.946;8.846;2022-07-31T13:11:41;1.30;;;1.20;;
33072;SDS011;19432;48.946;8.846;2022-07-31T13:14:06;2.75;;;1.20;;
33072;SDS011;19432;48.946;8.846;2022-07-31T13:16:32;1.35;;;1.25;;
33072;SDS011;19432;48.946;8.846;2022-07-31T13:18:58;1.17;;;1.08;;
33072;SDS011;19432;48.946;8.846;2022-07-31T13:21:23;1.33;;;1.20;;
33072;SDS011;19432;48.946;8.846;2022-07-31T13:23:50;1.10;;;1.00;;
33072;SDS011;19432;48.946;8.846;2022-07-31T13:26:16;1.90;;;1.20;;
33072;SDS011;19432;48.946;8.846;2022-07-31T13:28:42;1.48;;;1.38;;
33072;SDS011;19432;48.946;8.846;2022-07-31T13:31:08;1.00;;;1.00;;
33072;SDS011;19432;48.946;8.846;2022-07-31T13:33:33;1.17;;;1.13;;
33072;SDS011;19432;48.946;8.846;2022-07-31T13:35:59;1.27;;;1.17;;
33072;SDS011;19432;48.946;8.846;2022-07-31T13:38:24;1.02;;;1.00;;
33072;SDS011;19432;48.946;8.846;2022-07-31T13:40:50;1.20;;;1.10;;
33072;SDS011;19432;48.946;8.846;2022-07-31T13:43:34;1.45;;;1.35;;
33072;SDS011;19432;48.946;8.846;2022-07-31T13:46:00;1.38;;;1.27;;
33072;SDS011;19432;48.946;8.846;2022-07-31T13:48:26;1.40;;;1.30;;
33072;SDS011;19432;48.946;8.846;2022-07-31T13:50:51;1.80;;;1.15;;
33072;SDS011;19432;48.946;8.846;2022-07-31T13:53:17;1.38;;;1.27;;
33072;SDS011;19432;48.946;8.846;2022-07-31T13:55:42;1.38;;;1.27;;
33072;SDS011;19432;48.946;8.846;2022-07-31T13:58:08;1.42;;;1.33;;
33072;SDS011;19432;48.946;8.846;2022-07-31T14:00:34;1.42;;;1.33;;
33072;SDS011;19432;48.946;8.846;2022-07-31T14:03:00;1.25;;;1.13;;
33072;SDS011;19432;48.946;8.846;2022-07-31T14:05:26;1.98;;;1.40;;
33072;SDS011;19432;48.946;8.846;2022-07-31T14:07:52;1.60;;;1.40;;
33072;SDS011;19432;48.946;8.846;2022-07-31T14:10:18;1.50;;;1.40;;
33072;SDS011;19432;48.946;8.846;2022-07-31T14:12:43;1.77;;;1.30;;
33072;SDS011;19432;48.946;8.846;2022-07-31T14:15:09;2.85;;;1.30;;
33072;SDS011;19432;48.946;8.846;2022-07-31T14:17:35;1.58;;;1.38;;
33072;SDS011;19432;48.946;8.846;2022-07-31T14:20:00;1.40;;;1.30;;
33072;SDS011;19432;48.946;8.846;2022-07-31T14:22:27;1.58;;;1.48;;
33072;SDS011;19432;48.946;8.846;2022-07-31T14:24:53;1.65;;;1.30;;
33072;SDS011;19432;48.946;8.846;2022-07-31T14:27:19;1.55;;;1.35;;
33072;SDS011;19432;48.946;8.846;2022-07-31T14:29:45;1.30;;;1.20;;
33072;SDS011;19432;48.946;8.846;2022-07-31T14:32:10;1.40;;;1.30;;
33072;SDS011;19432;48.946;8.846;2022-07-31T14:34:36;1.80;;;1.27;;
33072;SDS011;19432;48.946;8.846;2022-07-31T14:37:02;1.40;;;1.30;;
33072;SDS011;19432;48.946;8.846;2022-07-31T14:39:28;1.40;;;1.30;;
33072;SDS011;19432;48.946;8.846;2022-07-31T14:41:54;1.40;;;1.30;;
33072;SDS011;19432;48.946;8.846;2022-07-31T14:44:19;1.15;;;1.05;;
33072;SDS011;19432;48.946;8.846;2022-07-31T14:46:45;1.40;;;1.30;;
33072;SDS011;19432;48.946;8.846;2022-07-31T14:49:11;1.60;;;1.23;;
33072;SDS011;19432;48.946;8.846;2022-07-31T14:51:36;1.65;;;1.40;;
33072;SDS011;19432;48.946;8.846;2022-07-31T14:54:03;1.35;;;1.25;;
33072;SDS011;19432;48.946;8.846;2022-07-31T14:56:29;1.20;;;1.10;;
33072;SDS011;19432;48.946;8.846;2022-07-31T14:58:54;1.65;;;1.42;;
33072;SDS011;19432;48.946;8.846;2022-07-31T15:01:20;1.40;;;1.30;;
33072;SDS011;19432;48.946;8.846;2022-07-31T15:03:46;1.05;;;1.02;;
33072;SDS011;19432;48.946;8.846;2022-07-31T15:06:14;1.83;;;1.70;;